createdAt,value
2018-04-17T00:01:07.144Z,12.26
2018-04-17T00:03:33.019Z,12.25
2018-04-17T00:05:59.925Z,12.25
2018-04-17T00:08:25.793Z,12.14
2018-04-17T00:10:51.636Z,12.15
2018-04-17T00:13:17.494Z,12.19
2018-04-17T00:15:43.371Z,12.20
2018-04-17T00:18:09.227Z,12.16
2018-04-17T00:20:35.074Z,12.17
2018-04-17T00:23:00.950Z,12.16
2018-04-17T00:25:26.797Z,12.21
2018-04-17T00:27:52.637Z,12.26
2018-04-17T00:30:18.520Z,12.19
2018-04-17T00:32:44.366Z,12.12
2018-04-17T00:35:10.232Z,12.10
2018-04-17T00:37:36.083Z,12.01
2018-04-17T00:40:01.923Z,12.07
2018-04-17T00:42:27.802Z,12.06
2018-04-17T00:44:53.657Z,12.01
2018-04-17T00:47:19.501Z,12.02
2018-04-17T00:49:45.347Z,12.00
2018-04-17T00:52:11.207Z,12.02
2018-04-17T00:54:37.062Z,12.05
2018-04-17T00:57:02.894Z,12.06
2018-04-17T00:59:28.742Z,12.05
2018-04-17T01:01:54.593Z,12.02
2018-04-17T01:04:20.464Z,12.07
2018-04-17T01:06:46.322Z,12.09
2018-04-17T01:09:12.170Z,12.05
2018-04-17T01:11:38.005Z,12.02
2018-04-17T01:14:03.854Z,11.97
2018-04-17T01:16:29.699Z,11.78
2018-04-17T01:18:55.579Z,11.70
2018-04-17T01:21:21.411Z,11.53
2018-04-17T01:23:47.251Z,11.47
2018-04-17T01:26:13.123Z,11.42
2018-04-17T01:28:38.974Z,11.33
2018-04-17T01:31:04.820Z,11.26
2018-04-17T01:33:30.707Z,11.18
2018-04-17T01:35:56.537Z,11.07
2018-04-17T01:38:22.375Z,11.09
2018-04-17T01:40:48.207Z,11.03
2018-04-17T01:43:14.041Z,10.95
2018-04-17T01:45:39.916Z,10.91
2018-04-17T01:48:05.760Z,10.84
2018-04-17T01:50:31.624Z,10.74
2018-04-17T01:52:57.489Z,10.75
2018-04-17T01:55:23.316Z,10.72
2018-04-17T01:57:49.154Z,10.69
2018-04-17T02:00:14.983Z,10.70
2018-04-17T02:02:40.837Z,10.65
2018-04-17T02:05:06.687Z,10.59
2018-04-17T02:07:32.540Z,10.58
2018-04-17T02:09:58.387Z,10.45
2018-04-17T02:12:24.225Z,10.33
2018-04-17T02:14:50.065Z,10.24
2018-04-17T02:17:15.908Z,10.18
2018-04-17T02:19:41.772Z,10.13
2018-04-17T02:22:07.615Z,10.21
2018-04-17T02:24:33.464Z,10.22
2018-04-17T02:26:59.337Z,10.11
2018-04-17T02:29:25.201Z,10.15
2018-04-17T02:31:51.046Z,10.16
2018-04-17T02:34:16.908Z,10.06
2018-04-17T02:36:42.771Z,10.05
2018-04-17T02:39:08.612Z,10.23
2018-04-17T02:41:34.501Z,10.35
2018-04-17T02:44:00.360Z,10.15
2018-04-17T02:46:26.242Z,10.02
2018-04-17T02:48:52.084Z,9.94
2018-04-17T02:51:17.945Z,9.87
2018-04-17T02:53:43.808Z,9.84
2018-04-17T02:56:10.528Z,9.84
2018-04-17T02:58:36.411Z,9.87
2018-04-17T03:01:02.269Z,9.71
2018-04-17T03:03:28.158Z,9.68
2018-04-17T03:05:54.004Z,9.55
2018-04-17T03:08:19.867Z,9.45
2018-04-17T03:10:45.710Z,9.45
2018-04-17T03:13:11.582Z,9.44
2018-04-17T03:15:37.429Z,9.41
2018-04-17T03:18:03.283Z,9.33
2018-04-17T03:20:29.156Z,9.34
2018-04-17T03:22:55.009Z,9.31
2018-04-17T03:25:20.892Z,9.33
2018-04-17T03:27:47.960Z,9.29
2018-04-17T03:30:13.828Z,9.26
2018-04-17T03:32:39.671Z,9.17
2018-04-17T03:35:05.537Z,9.14
2018-04-17T03:37:31.377Z,9.13
2018-04-17T03:39:57.244Z,9.07
2018-04-17T03:42:23.095Z,9.08
2018-04-17T03:44:48.947Z,9.05
2018-04-17T03:47:14.806Z,9.01
2018-04-17T03:49:40.651Z,9.01
2018-04-17T03:52:06.515Z,8.99
2018-04-17T03:54:32.372Z,8.98
2018-04-17T03:56:58.243Z,9.03
2018-04-17T03:59:24.091Z,9.04
2018-04-17T04:01:49.962Z,8.97
2018-04-17T04:04:15.827Z,8.93
2018-04-17T04:06:41.659Z,8.96
2018-04-17T04:09:07.530Z,8.95
2018-04-17T04:11:33.371Z,8.94
2018-04-17T04:13:59.259Z,8.97
2018-04-17T04:16:37.360Z,8.82
2018-04-17T04:19:15.511Z,8.85
2018-04-17T04:21:53.744Z,8.76
2018-04-17T04:24:31.936Z,8.72
2018-04-17T04:26:57.777Z,8.71
2018-04-17T04:29:23.638Z,8.73
2018-04-17T04:31:49.470Z,8.75
2018-04-17T04:34:16.204Z,8.77
2018-04-17T04:36:42.036Z,8.77
2018-04-17T04:39:07.906Z,8.77
2018-04-17T04:41:33.756Z,8.76
2018-04-17T04:43:59.597Z,8.72
2018-04-17T04:46:25.429Z,8.74
2018-04-17T04:48:51.258Z,8.79
2018-04-17T04:51:17.118Z,8.79
2018-04-17T04:53:42.965Z,8.80
2018-04-17T04:56:08.826Z,8.80
2018-04-17T04:58:34.688Z,8.84
2018-04-17T05:01:00.532Z,8.88
2018-04-17T05:03:26.395Z,8.94
2018-04-17T05:05:52.258Z,9.03
2018-04-17T05:08:18.144Z,9.09
2018-04-17T05:10:44.003Z,9.13
2018-04-17T05:13:09.865Z,9.19
2018-04-17T05:15:35.721Z,9.29
2018-04-17T05:18:01.570Z,9.35
2018-04-17T05:20:27.456Z,9.35
2018-04-17T05:22:53.290Z,9.47
2018-04-17T05:25:19.156Z,9.51
2018-04-17T05:27:45.033Z,9.59
2018-04-17T05:30:10.892Z,9.67
2018-04-17T05:32:36.732Z,9.70
2018-04-17T05:35:02.633Z,9.76
2018-04-17T05:37:28.483Z,9.80
2018-04-17T05:39:54.510Z,9.90
2018-04-17T05:42:20.361Z,10.00
2018-04-17T05:44:46.224Z,10.06
2018-04-17T05:47:12.090Z,10.16
2018-04-17T05:49:37.947Z,10.26
2018-04-17T05:52:03.793Z,10.30
2018-04-17T05:54:29.639Z,10.38
2018-04-17T05:56:55.497Z,10.41
2018-04-17T05:59:21.359Z,10.46
2018-04-17T06:01:48.039Z,10.54
2018-04-17T06:04:13.871Z,10.66
2018-04-17T06:06:39.724Z,10.82
2018-04-17T06:09:05.589Z,10.85
2018-04-17T06:11:31.421Z,10.95
2018-04-17T06:13:57.293Z,10.97
2018-04-17T06:16:23.150Z,10.98
2018-04-17T06:18:48.994Z,10.99
2018-04-17T06:21:14.843Z,11.02
2018-04-17T06:23:40.695Z,11.12
2018-04-17T06:26:06.589Z,11.18
2018-04-17T06:28:32.449Z,11.26
2018-04-17T06:30:58.317Z,11.23
2018-04-17T06:33:24.153Z,11.32
2018-04-17T06:35:50.081Z,11.48
2018-04-17T06:38:15.930Z,11.46
2018-04-17T06:40:41.784Z,11.40
2018-04-17T06:43:07.648Z,11.48
2018-04-17T06:45:33.502Z,11.45
2018-04-17T06:47:59.360Z,11.53
2018-04-17T06:50:25.432Z,11.61
2018-04-17T06:52:51.296Z,11.64
2018-04-17T06:55:17.157Z,11.67
2018-04-17T06:57:43.023Z,11.81
2018-04-17T07:00:08.898Z,11.89
2018-04-17T07:02:34.751Z,11.80
2018-04-17T07:05:00.614Z,11.72
2018-04-17T07:07:26.475Z,11.69
2018-04-17T07:09:52.327Z,11.86
2018-04-17T07:12:18.197Z,12.10
2018-04-17T07:14:44.068Z,12.23
2018-04-17T07:17:09.915Z,12.33
2018-04-17T07:19:35.779Z,12.38
2018-04-17T07:22:01.674Z,12.48
2018-04-17T07:24:27.553Z,12.51
2018-04-17T07:26:53.407Z,12.40
2018-04-17T07:29:19.262Z,12.31
2018-04-17T07:31:45.146Z,12.37
2018-04-17T07:34:11.014Z,12.47
2018-04-17T07:36:36.855Z,12.63
2018-04-17T07:39:02.751Z,12.58
2018-04-17T07:41:28.609Z,12.54
2018-04-17T07:43:54.488Z,12.63
2018-04-17T07:46:20.357Z,12.84
2018-04-17T07:48:49.171Z,12.78
2018-04-17T07:51:15.410Z,12.85
2018-04-17T07:53:41.246Z,12.91
2018-04-17T07:56:07.158Z,12.75
2018-04-17T07:58:32.993Z,12.99
2018-04-17T08:00:58.854Z,13.21
2018-04-17T08:03:24.709Z,13.10
2018-04-17T08:08:43.553Z,13.13
2018-04-17T08:11:09.395Z,13.12
2018-04-17T08:13:35.251Z,13.26
2018-04-17T08:16:01.104Z,13.41
2018-04-17T08:18:26.945Z,13.66
2018-04-17T08:20:52.804Z,13.65
2018-04-17T08:23:18.670Z,13.81
2018-04-17T08:25:44.534Z,13.87
2018-04-17T08:28:10.399Z,13.81
2018-04-17T08:30:36.263Z,13.68
2018-04-17T08:33:02.114Z,13.74
2018-04-17T08:35:27.985Z,13.78
2018-04-17T08:37:53.831Z,13.97
2018-04-17T08:40:19.715Z,14.05
2018-04-17T08:42:45.610Z,14.13
2018-04-17T08:45:11.485Z,14.04
2018-04-17T08:47:37.352Z,14.09
2018-04-17T08:50:03.224Z,13.97
2018-04-17T08:52:29.084Z,13.85
2018-04-17T08:54:54.938Z,13.78
2018-04-17T08:57:20.777Z,13.84
2018-04-17T08:59:46.598Z,13.82
2018-04-17T09:02:12.452Z,13.98
2018-04-17T09:04:38.291Z,14.15
2018-04-17T09:07:04.163Z,14.22
2018-04-17T09:09:30.019Z,14.23
2018-04-17T09:11:55.950Z,14.57
2018-04-17T09:14:21.777Z,14.77
2018-04-17T09:16:47.628Z,14.81
2018-04-17T09:19:13.493Z,14.93
2018-04-17T09:21:39.334Z,14.94
2018-04-17T09:24:05.186Z,14.95
2018-04-17T09:26:31.033Z,14.97
2018-04-17T09:28:56.885Z,15.00
2018-04-17T09:31:22.744Z,15.22
2018-04-17T09:33:48.993Z,15.34
2018-04-17T09:36:14.821Z,15.46
2018-04-17T09:38:40.691Z,15.53
2018-04-17T09:41:06.543Z,15.68
2018-04-17T09:43:32.378Z,15.73
2018-04-17T09:45:59.723Z,15.71
2018-04-17T09:48:25.578Z,15.74
2018-04-17T09:50:51.415Z,15.85
2018-04-17T09:53:17.271Z,16.06
2018-04-17T09:55:43.156Z,16.14
2018-04-17T09:58:09.009Z,16.15
2018-04-17T10:00:40.846Z,16.03
2018-04-17T10:03:06.708Z,16.10
2018-04-17T10:05:32.538Z,16.26
2018-04-17T10:07:58.379Z,16.33
2018-04-17T10:10:24.209Z,16.41
2018-04-17T10:12:50.061Z,16.39
2018-04-17T10:15:15.902Z,16.56
2018-04-17T10:17:43.369Z,16.85
2018-04-17T10:20:09.198Z,17.06
2018-04-17T10:22:35.107Z,17.06
2018-04-17T10:25:00.935Z,17.07
2018-04-17T10:27:26.802Z,17.23
2018-04-17T10:29:52.675Z,17.26
2018-04-17T10:32:18.544Z,17.42
2018-04-17T10:34:44.409Z,17.38
2018-04-17T10:37:10.243Z,17.34
2018-04-17T10:39:36.086Z,17.46
2018-04-17T10:42:01.939Z,17.19
2018-04-17T10:44:27.931Z,17.19
2018-04-17T10:46:53.769Z,17.26
2018-04-17T10:49:19.633Z,17.11
2018-04-17T10:51:45.491Z,17.25
2018-04-17T10:54:11.341Z,17.47
2018-04-17T10:56:37.189Z,17.62
2018-04-17T10:59:03.060Z,17.88
2018-04-17T11:01:28.928Z,18.16
2018-04-17T11:03:54.766Z,18.17
2018-04-17T11:06:20.730Z,18.36
2018-04-17T11:08:46.575Z,18.62
2018-04-17T11:11:12.427Z,18.89
2018-04-17T11:13:38.291Z,19.18
2018-04-17T11:16:04.168Z,19.78
2018-04-17T11:18:29.988Z,20.18
2018-04-17T11:20:55.810Z,20.39
2018-04-17T11:23:21.691Z,20.43
2018-04-17T11:25:47.534Z,20.79
2018-04-17T11:28:13.412Z,21.05
2018-04-17T11:30:39.238Z,21.50
2018-04-17T11:33:05.110Z,21.95
2018-04-17T11:35:30.971Z,22.01
2018-04-17T11:37:56.840Z,22.44
2018-04-17T11:40:22.697Z,22.63
2018-04-17T11:42:48.574Z,23.26
2018-04-17T11:45:14.412Z,23.48
2018-04-17T11:47:40.271Z,22.70
2018-04-17T11:50:06.128Z,22.55
2018-04-17T11:52:31.987Z,21.98
2018-04-17T11:54:57.851Z,21.92
2018-04-17T11:57:23.692Z,21.27
2018-04-17T11:59:49.563Z,20.84
2018-04-17T12:02:15.423Z,20.82
2018-04-17T12:04:41.261Z,21.60
2018-04-17T12:07:07.136Z,21.61
2018-04-17T12:09:47.949Z,22.47
2018-04-17T12:12:13.832Z,21.54
2018-04-17T12:14:39.748Z,21.63
2018-04-17T12:17:05.545Z,21.95
2018-04-17T12:19:31.399Z,22.04
2018-04-17T12:21:57.263Z,22.59
2018-04-17T12:24:23.097Z,23.32
2018-04-17T12:26:48.949Z,23.81
2018-04-17T12:29:14.777Z,24.08
2018-04-17T12:31:40.661Z,24.07
2018-04-17T12:34:06.503Z,24.04
2018-04-17T12:36:32.340Z,24.06
2018-04-17T12:38:58.174Z,23.97
2018-04-17T12:41:24.023Z,23.98
2018-04-17T12:43:49.893Z,24.40
2018-04-17T12:46:15.761Z,24.88
2018-04-17T12:48:41.659Z,25.12
2018-04-17T12:51:07.495Z,25.03
2018-04-17T12:53:33.355Z,24.60
2018-04-17T12:55:59.211Z,24.92
2018-04-17T12:58:25.056Z,25.51
2018-04-17T13:00:50.895Z,25.63
2018-04-17T13:03:16.739Z,25.79
2018-04-17T13:05:44.239Z,26.02
2018-04-17T13:08:10.094Z,26.33
2018-04-17T13:10:35.976Z,26.14
2018-04-17T13:13:01.823Z,25.59
2018-04-17T13:15:27.702Z,25.60
2018-04-17T13:17:53.535Z,24.90
2018-04-17T13:20:19.433Z,25.28
2018-04-17T13:22:45.299Z,25.78
2018-04-17T13:25:11.146Z,26.57
2018-04-17T13:27:37.006Z,26.29
2018-04-17T13:30:02.903Z,26.06
2018-04-17T13:32:28.741Z,26.00
2018-04-17T13:34:54.599Z,25.82
2018-04-17T13:37:20.460Z,26.16
2018-04-17T13:39:46.311Z,26.62
2018-04-17T13:42:12.151Z,26.61
2018-04-17T13:44:38.018Z,25.96
2018-04-17T13:47:03.874Z,26.58
2018-04-17T13:49:29.716Z,26.42
2018-04-17T13:51:55.588Z,26.32
2018-04-17T13:54:21.433Z,26.53
2018-04-17T13:56:47.310Z,26.93
2018-04-17T13:59:13.179Z,26.62
2018-04-17T14:01:39.028Z,26.32
2018-04-17T14:04:04.889Z,26.19
2018-04-17T14:06:30.772Z,26.35
2018-04-17T14:08:56.658Z,26.36
2018-04-17T14:11:22.506Z,26.10
2018-04-17T14:13:48.376Z,25.62
2018-04-17T14:16:14.231Z,25.77
2018-04-17T14:18:40.077Z,26.10
2018-04-17T14:21:05.927Z,26.22
2018-04-17T14:23:31.785Z,25.82
2018-04-17T14:25:57.655Z,25.79
2018-04-17T14:28:23.514Z,25.87
2018-04-17T14:30:49.372Z,26.39
2018-04-17T14:33:15.215Z,26.82
2018-04-17T14:35:41.066Z,26.54
2018-04-17T14:38:06.917Z,26.73
2018-04-17T14:40:32.786Z,25.95
2018-04-17T14:42:58.656Z,25.61
2018-04-17T14:45:24.530Z,26.12
2018-04-17T14:47:50.399Z,26.58
2018-04-17T14:50:16.258Z,26.35
2018-04-17T14:52:42.101Z,26.35
2018-04-17T14:55:07.962Z,25.29
2018-04-17T14:57:33.814Z,25.83
2018-04-17T14:59:59.659Z,26.25
2018-04-17T15:02:25.523Z,26.46
2018-04-17T15:04:51.360Z,26.20
2018-04-17T15:07:17.218Z,25.44
2018-04-17T15:09:43.088Z,25.99
2018-04-17T15:12:08.945Z,25.93
2018-04-17T15:14:34.782Z,26.52
2018-04-17T15:17:00.648Z,26.40
2018-04-17T15:19:26.516Z,26.54
2018-04-17T15:21:52.384Z,26.24
2018-04-17T15:24:18.239Z,26.01
2018-04-17T15:26:44.089Z,25.16
2018-04-17T15:29:09.977Z,24.95
2018-04-17T15:31:35.829Z,25.22
2018-04-17T15:34:01.698Z,25.35
2018-04-17T15:36:27.555Z,25.57
2018-04-17T15:38:53.411Z,25.51
2018-04-17T15:41:19.271Z,25.61
2018-04-17T15:43:45.125Z,25.69
2018-04-17T15:46:10.969Z,25.90
2018-04-17T15:48:36.855Z,25.89
2018-04-17T15:51:02.714Z,25.40
2018-04-17T15:56:21.538Z,24.27
2018-04-17T15:58:47.911Z,24.11
2018-04-17T16:01:13.769Z,24.34
2018-04-17T16:03:39.629Z,24.59
2018-04-17T16:06:05.496Z,24.82
2018-04-17T16:08:31.400Z,24.96
2018-04-17T16:10:57.237Z,25.15
2018-04-17T16:13:23.072Z,24.83
2018-04-17T16:15:48.930Z,25.27
2018-04-17T16:18:14.780Z,25.06
2018-04-17T16:20:40.637Z,24.35
2018-04-17T16:23:06.496Z,24.68
2018-04-17T16:25:32.322Z,25.87
2018-04-17T16:27:58.186Z,26.29
2018-04-17T16:30:24.046Z,26.24
2018-04-17T16:32:49.893Z,26.24
2018-04-17T16:35:15.745Z,25.89
2018-04-17T16:37:41.624Z,26.58
2018-04-17T16:40:07.483Z,26.42
2018-04-17T16:42:33.367Z,26.04
2018-04-17T16:44:59.250Z,25.45
2018-04-17T16:47:25.109Z,25.04
2018-04-17T16:49:50.986Z,24.37
2018-04-17T16:52:18.783Z,23.92
2018-04-17T16:54:44.656Z,23.26
2018-04-17T16:57:10.493Z,22.78
2018-04-17T16:59:36.352Z,22.10
2018-04-17T17:02:02.194Z,21.36
2018-04-17T17:04:28.055Z,21.25
2018-04-17T17:06:53.949Z,21.12
2018-04-17T17:09:19.803Z,20.90
2018-04-17T17:11:45.676Z,21.03
2018-04-17T17:14:11.542Z,21.17
2018-04-17T17:16:37.377Z,20.93
2018-04-17T17:19:03.251Z,20.79
2018-04-17T17:21:29.130Z,20.47
2018-04-17T17:23:54.985Z,20.38
2018-04-17T17:26:20.901Z,20.69
2018-04-17T17:28:46.776Z,20.77
2018-04-17T17:31:12.681Z,20.77
2018-04-17T17:33:38.614Z,20.80
2018-04-17T17:36:04.538Z,20.49
2018-04-17T17:38:30.468Z,19.91
2018-04-17T17:40:56.320Z,19.56
2018-04-17T17:43:22.209Z,19.26
2018-04-17T17:45:48.070Z,19.05
2018-04-17T17:48:13.991Z,18.91
2018-04-17T17:50:39.874Z,18.74
2018-04-17T17:53:05.757Z,18.63
2018-04-17T17:55:31.632Z,18.40
2018-04-17T17:57:57.564Z,18.25
2018-04-17T18:00:23.433Z,18.07
2018-04-17T18:02:49.350Z,18.03
2018-04-17T18:05:15.252Z,17.97
2018-04-17T18:07:41.119Z,17.77
2018-04-17T18:10:06.987Z,17.61
2018-04-17T18:12:32.969Z,17.47
2018-04-17T18:14:59.785Z,17.30
2018-04-17T18:17:25.679Z,17.20
2018-04-17T18:19:51.625Z,17.13
2018-04-17T18:22:17.571Z,17.05
2018-04-17T18:24:43.473Z,16.99
2018-04-17T18:27:09.329Z,16.84
2018-04-17T18:29:35.185Z,16.77
2018-04-17T18:32:01.163Z,16.73
2018-04-17T18:34:27.858Z,16.72
2018-04-17T18:36:53.786Z,16.70
2018-04-17T18:39:19.717Z,16.58
2018-04-17T18:41:45.613Z,16.44
2018-04-17T18:44:11.538Z,16.45
2018-04-17T18:46:37.387Z,16.38
2018-04-17T18:49:04.178Z,16.32
2018-04-17T18:51:30.162Z,16.29
2018-04-17T18:53:56.001Z,16.20
2018-04-17T18:56:21.872Z,16.24
2018-04-17T18:58:47.751Z,16.15
2018-04-17T19:01:13.819Z,16.11
2018-04-17T19:03:39.742Z,16.04
2018-04-17T19:06:05.665Z,15.95
2018-04-17T19:08:31.633Z,15.87
2018-04-17T19:10:57.538Z,15.85
2018-04-17T19:13:23.484Z,15.78
2018-04-17T19:15:49.350Z,15.71
2018-04-17T19:18:15.285Z,15.62
2018-04-17T19:20:41.247Z,15.53
2018-04-17T19:23:08.104Z,15.52
2018-04-17T19:25:34.063Z,15.53
2018-04-17T19:28:00.004Z,15.39
2018-04-17T19:33:18.888Z,15.43
2018-04-17T19:35:44.911Z,15.37
2018-04-17T19:38:11.824Z,15.31
2018-04-17T19:40:37.692Z,15.26
2018-04-17T19:43:03.700Z,15.29
2018-04-17T19:45:29.693Z,15.20
2018-04-17T19:47:55.559Z,15.22
2018-04-17T19:50:21.479Z,15.18
2018-04-17T19:52:47.406Z,15.26
2018-04-17T19:55:13.307Z,15.13
2018-04-17T19:57:39.248Z,15.14
2018-04-17T20:00:05.123Z,15.10
2018-04-17T20:02:31.374Z,15.09
2018-04-17T20:04:57.428Z,15.08
2018-04-17T20:07:23.340Z,15.09
2018-04-17T20:09:49.312Z,15.08
2018-04-17T20:12:15.179Z,15.11
2018-04-17T20:14:41.078Z,15.03
2018-04-17T20:17:06.930Z,14.94
2018-04-17T20:19:32.801Z,14.91
2018-04-17T20:21:58.758Z,14.77
2018-04-17T20:24:24.705Z,14.76
2018-04-17T20:26:50.623Z,14.67
2018-04-17T20:29:16.601Z,14.59
2018-04-17T20:31:42.505Z,14.58
2018-04-17T20:34:08.407Z,14.49
2018-04-17T20:36:34.282Z,14.46
2018-04-17T20:39:00.123Z,14.46
2018-04-17T20:41:26.660Z,14.38
2018-04-17T20:43:53.559Z,14.40
2018-04-17T20:46:19.491Z,14.31
2018-04-17T20:48:45.391Z,14.24
2018-04-17T20:51:11.326Z,14.12
2018-04-17T20:53:37.239Z,14.13
2018-04-17T20:56:03.150Z,14.09
2018-04-17T20:58:29.018Z,14.09
2018-04-17T21:00:54.866Z,14.06
2018-04-17T21:03:20.818Z,14.01
2018-04-17T21:05:46.729Z,14.02
2018-04-17T21:08:12.608Z,13.97
2018-04-17T21:10:38.533Z,13.91
2018-04-17T21:13:04.486Z,13.88
2018-04-17T21:15:30.360Z,13.81
2018-04-17T21:17:56.234Z,13.71
2018-04-17T21:20:22.111Z,13.68
2018-04-17T21:22:47.991Z,13.65
2018-04-17T21:25:13.866Z,13.63
2018-04-17T21:27:39.732Z,13.60
2018-04-17T21:30:05.584Z,13.57
2018-04-17T21:32:31.444Z,13.55
2018-04-17T21:34:57.313Z,13.50
2018-04-17T21:37:23.155Z,13.48
2018-04-17T21:39:49.032Z,13.46
2018-04-17T21:42:14.890Z,13.42
2018-04-17T21:44:40.755Z,13.42
2018-04-17T21:47:06.610Z,13.40
2018-04-17T21:49:32.488Z,13.36
2018-04-17T21:51:58.352Z,13.31
2018-04-17T21:54:24.205Z,13.24
2018-04-17T21:56:50.050Z,13.22
2018-04-17T21:59:15.925Z,13.15
2018-04-17T22:01:41.794Z,13.20
2018-04-17T22:04:07.652Z,13.19
2018-04-17T22:06:33.472Z,13.12
2018-04-17T22:08:59.331Z,13.08
2018-04-17T22:11:25.193Z,13.13
2018-04-17T22:13:51.082Z,13.11
2018-04-17T22:16:16.934Z,13.12
2018-04-17T22:18:42.812Z,13.05
2018-04-17T22:21:08.706Z,12.99
2018-04-17T22:23:34.567Z,12.98
2018-04-17T22:26:00.464Z,13.02
2018-04-17T22:28:26.307Z,12.96
2018-04-17T22:30:52.162Z,12.94
2018-04-17T22:33:17.996Z,12.94
2018-04-17T22:35:43.840Z,12.92
2018-04-17T22:38:09.715Z,12.93
2018-04-17T22:40:35.594Z,12.86
2018-04-17T22:43:01.500Z,12.86
2018-04-17T22:45:27.361Z,12.86
2018-04-17T22:47:53.233Z,12.80
2018-04-17T22:50:19.108Z,12.81
2018-04-17T22:52:44.989Z,12.84
2018-04-17T22:55:10.852Z,12.87
2018-04-17T22:57:36.757Z,12.87
2018-04-17T23:00:02.657Z,12.94
2018-04-17T23:02:28.489Z,12.96
2018-04-17T23:04:54.333Z,12.90
2018-04-17T23:07:20.179Z,12.80
2018-04-17T23:09:46.034Z,12.86
2018-04-17T23:12:11.884Z,12.87
2018-04-17T23:14:37.744Z,12.86
2018-04-17T23:17:03.578Z,12.81
2018-04-17T23:19:29.430Z,12.80
2018-04-17T23:21:55.272Z,12.82
2018-04-17T23:24:21.125Z,12.74
2018-04-17T23:26:46.987Z,12.69
2018-04-17T23:29:12.834Z,12.72
2018-04-17T23:31:38.692Z,12.65
2018-04-17T23:34:04.556Z,12.58
2018-04-17T23:36:30.415Z,12.75
2018-04-17T23:38:56.263Z,12.63
2018-04-17T23:41:22.115Z,12.54
2018-04-17T23:43:47.962Z,12.53
2018-04-17T23:46:13.843Z,12.48
2018-04-17T23:48:39.695Z,12.47
2018-04-17T23:51:05.530Z,12.46
2018-04-17T23:53:31.402Z,12.54
2018-04-17T23:55:57.272Z,12.45
2018-04-17T23:58:23.116Z,12.42
